• Join FlightAware (Why Join?)
  • Login
  • US Flag 
01:01AM EDT


 

Airport Tracker/Info


-or-


 

Live Flight TrackerFlight Track Log ✈ KAP165 ✈ 08-Jun-2013 ✈ KOGS - KALB

Flight Track Log - Related Links

Times and Time Zones

All times are in EDT time to prevent confusion due to time zone crossing. See the KAP165 flight status page for this flight to view local times or setup timezone preferences in your user account.

Time Position Orientation Groundspeed Altitude Reporting Facility
EDT Latitude Longitude Course Direction KTS MPH feet Rate Location/Type
04:59PM 44.4692 -75.2761 111° Southeast  Level Estimated
05:00PM 44.4928 -75.2137 62° Northeast  Level FlightAware Approximate
05:05PM 44.6308 -75.2725 106° East 160 184 3,400  Level Boston Center
05:06PM 44.5986 -75.2217 132° Southeast 170 196 4,200 840 Climbing Boston Center
05:07PM 44.5617 -75.1964 154° Southeast 154 177 5,100 900 Climbing Boston Center
05:08PM 44.5250 -75.1656 149° Southeast 154 177 6,000 840 Climbing Boston Center
05:09PM 44.4881 -75.1378 152° Southeast 154 177 6,800 540 Climbing Boston Center
05:10PM 44.0599 -74.8542 106° East  Level Estimated
05:10PM 44.4453 -75.1008 148° Southeast 159 183 7,100  Level Boston Center
05:11PM 44.4022 -75.0697 153° Southeast 170 196 7,100  Level Boston Center
05:12PM 44.3569 -75.0358 152° Southeast 175 201 7,100  Level Boston Center
05:13PM 44.3161 -74.9992 147° Southeast 175 201 7,100 -60 Level Boston Center
05:14PM 44.2731 -74.9683 153° Southeast 180 207 7,000  Descending Boston Center
05:15PM 44.2303 -74.9319 149° Southeast 180 207 7,100  Climbing Boston Center
05:16PM 44.1872 -74.8983 151° Southeast 180 207 7,100  Level Boston Center
05:17PM 44.1419 -74.8617 150° Southeast 180 207 7,100  Level Boston Center
05:18PM 44.1011 -74.8311 152° Southeast 180 207 7,100 -60 Level Boston Center
05:19PM 44.0497 -74.7914 151° Southeast 180 207 7,000 -60 Descending Boston Center
05:20PM 44.0067 -74.7581 151° Southeast 180 207 7,000  Level Boston Center
05:21PM 43.9636 -74.7217 149° Southeast 180 207 7,100  Climbing Boston Center
05:22PM 43.9206 -74.6911 153° Southeast 180 207 7,100  Level Boston Center
05:23PM 43.8775 -74.6550 149° Southeast 180 207 7,100  Level Boston Center
05:24PM 43.8342 -74.6217 151° Southeast 180 207 7,100  Level Boston Center
05:25PM 43.7911 -74.5886 151° Southeast 180 207 7,100  Level Boston Center
05:26PM 43.7481 -74.5553 151° Southeast 180 207 7,100  Level Boston Center
05:27PM 43.7047 -74.5222 151° Southeast 180 207 7,100  Level Boston Center
05:28PM 43.6617 -74.4892 151° Southeast 180 207 7,100  Level Boston Center
05:29PM 43.6164 -74.4561 152° Southeast 180 207 7,100  Level Boston Center
05:30PM 43.5733 -74.4203 149° Southeast 180 207 7,100 -60 Level Boston Center
05:32PM 43.5239 -74.3844 152° Southeast 184 212 7,000 -120 Descending Boston Center
05:32PM 43.5033 -74.3694 152° Southeast 182 209 7,000 60 Level Boston Center
05:32PM 43.4847 -74.3544 150° Southeast 180 207 7,100  Climbing Boston Center
05:33PM 43.4581 -74.3364 154° Southeast 180 207 7,000  Descending Boston Center
05:33PM 43.4417 -74.3217 147° Southeast 180 207 7,100  Climbing Boston Center
05:34PM 43.4169 -74.3039 152° Southeast 181 208 7,000  Descending Boston Center
05:34PM 43.3983 -74.2861 145° Southeast 180 207 7,100  Climbing Boston Center
05:35PM 43.3736 -74.2711 156° South 182 209 7,000 -120 Descending Boston Center
05:35PM 43.3469 -74.2503 150° Southeast 180 207 7,000  Level Boston Center
05:36PM 43.3281 -74.2411 161° South 179 206 7,000  Level Boston Center
05:36PM 43.3036 -74.2175 145° Southeast 180 207 7,000  Level Boston Center
05:37PM 43.2892 -74.2056 149° Southeast 180 207 7,000 -240 Level Boston Center
05:37PM 43.2603 -74.1822 150° Southeast 180 207 6,800 -420 Descending Boston Center
05:38PM 43.2439 -74.1731 158° South 184 212 6,600 -540 Descending Boston Center
05:38PM 43.2150 -74.1494 149° Southeast 185 213 6,300 -540 Descending Boston Center
05:39PM 43.1944 -74.1347 152° Southeast 199 229 6,100 -600 Descending Boston Center
05:39PM 43.1656 -74.1139 152° Southeast 191 220 5,700 -600 Descending Boston Center
05:40PM 43.1428 -74.0961 150° Southeast 198 228 5,500 -540 Descending Boston Center
05:40PM 43.1222 -74.0786 148° Southeast 199 229 5,200 -540 Descending Boston Center
05:41PM 43.0933 -74.0664 163° South 198 228 5,000 -240 Descending Boston Center
05:41PM 43.0664 -74.0486 154° Southeast 194 223 5,000  Level Boston Center
05:42PM 43.0436 -74.0394 164° South 187 215 5,000  Level Boston Center
05:42PM 43.0228 -74.0275 157° South 188 216 5,000  Level Boston Center
05:43PM 42.9981 -74.0128 156° South 180 207 5,000  Level Boston Center
05:43PM 42.9733 -73.9981 156° South 188 216 5,000  Level Boston Center
05:44PM 42.9483 -73.9889 165° South 180 207 5,000 -240 Level Boston Center
05:44PM 42.9297 -73.9769 155° Southeast 188 216 4,800 -300 Descending Boston Center
05:45PM 42.9028 -73.9650 162° South 186 214 4,700 -420 Descending Boston Center
05:45PM 42.8739 -73.9500 159° South 188 216 4,400 -600 Descending Boston Center
05:46PM 42.8531 -73.9497 179° South 196 226 4,200 -540 Descending Boston Center
05:46PM 42.8239 -73.9403 167° South 188 216 3,900 -540 Descending Boston Center
05:47PM 42.8033 -73.9342 168° South 190 219 3,700 -540 Descending Boston Center
05:48PM 42.7472 -73.9217 171° South 190 219 3,200 -360 Descending Boston Center
05:49PM 42.6972 -73.9119 172° South 181 208 3,000 -120 Descending Boston Center
05:50PM 42.6514 -73.9025 171° South 157 181 3,000 -180 Level Boston Center
05:51PM 42.6458 -73.8486 98° East 168 193 2,700 -480 Descending Boston Center
05:52PM 42.6714 -73.8153 44° Northeast 139 160 2,100 -960 Descending Boston Center
05:53PM 42.7069 -73.8047 12° North 123 142 900 -1,200 Descending Boston Center